createdAt,value
2023-04-30T00:00:47.557Z,15.43
2023-04-30T00:03:36.475Z,16.07
2023-04-30T00:06:04.986Z,12.20
2023-04-30T00:08:33.510Z,11.77
2023-04-30T00:11:01.814Z,12.30
2023-04-30T00:13:30.445Z,15.20
2023-04-30T00:15:58.710Z,10.93
2023-04-30T00:18:27.204Z,13.87
2023-04-30T00:20:56.815Z,12.03
2023-04-30T00:23:25.389Z,15.10
2023-04-30T00:25:53.667Z,14.67
2023-04-30T00:28:22.366Z,18.07
2023-04-30T00:30:50.709Z,14.43
2023-04-30T00:33:19.290Z,11.30
2023-04-30T00:35:47.586Z,15.40
2023-04-30T00:38:17.770Z,13.73
2023-04-30T00:40:47.183Z,13.50
2023-04-30T00:43:15.808Z,14.03
2023-04-30T00:45:44.761Z,12.53
2023-04-30T00:48:13.406Z,13.47
2023-04-30T00:50:44.839Z,11.87
2023-04-30T00:53:13.797Z,12.50
2023-04-30T00:55:45.850Z,23.37
2023-04-30T00:58:14.385Z,15.47
2023-04-30T01:00:47.151Z,13.00
2023-04-30T01:03:16.284Z,12.70
2023-04-30T01:05:44.853Z,14.50
2023-04-30T01:08:13.469Z,16.50
2023-04-30T01:10:53.377Z,15.13
2023-04-30T01:13:33.070Z,11.77
2023-04-30T01:16:10.403Z,13.27
2023-04-30T01:18:44.783Z,14.30
2023-04-30T01:21:15.424Z,15.93
2023-04-30T01:24:04.517Z,14.80
2023-04-30T01:26:47.906Z,15.60
2023-04-30T01:29:21.293Z,14.73
2023-04-30T01:31:49.767Z,15.53
2023-04-30T01:34:18.570Z,14.53
2023-04-30T01:37:06.994Z,16.27
2023-04-30T01:39:49.900Z,15.63
2023-04-30T01:42:22.789Z,17.13
2023-04-30T01:45:13.839Z,16.47
2023-04-30T01:47:51.365Z,13.53
2023-04-30T01:50:29.406Z,12.00
2023-04-30T01:53:01.085Z,13.77
2023-04-30T01:55:36.809Z,15.17
2023-04-30T01:58:08.552Z,11.57
2023-04-30T02:00:38.541Z,13.70
2023-04-30T02:03:07.022Z,10.93
2023-04-30T02:05:36.164Z,13.50
2023-04-30T02:08:05.194Z,12.83
2023-04-30T02:10:35.356Z,13.10
2023-04-30T02:13:04.336Z,14.50
2023-04-30T02:15:33.075Z,12.50
2023-04-30T02:18:02.900Z,15.60
2023-04-30T02:20:31.801Z,11.03
2023-04-30T02:23:00.021Z,13.27
2023-04-30T02:25:28.562Z,12.00
2023-04-30T02:27:57.175Z,12.93
2023-04-30T02:30:25.844Z,11.17
2023-04-30T02:32:54.055Z,12.87
2023-04-30T02:35:23.962Z,10.63
2023-04-30T02:37:52.628Z,11.53
2023-04-30T02:40:21.145Z,8.73
2023-04-30T02:42:49.913Z,11.10
2023-04-30T02:45:18.502Z,8.27
2023-04-30T02:47:47.244Z,10.67
2023-04-30T02:50:15.925Z,11.47
2023-04-30T02:52:47.329Z,9.80
2023-04-30T02:55:16.723Z,11.33
2023-04-30T02:57:44.942Z,12.70
2023-04-30T03:00:14.654Z,11.97
2023-04-30T03:02:43.175Z,8.33
2023-04-30T03:05:12.529Z,10.73
2023-04-30T03:07:40.770Z,9.10
2023-04-30T03:10:11.968Z,9.80
2023-04-30T03:12:41.013Z,9.00
2023-04-30T03:15:10.691Z,11.70
2023-04-30T03:17:39.003Z,9.30
2023-04-30T03:20:08.777Z,11.87
2023-04-30T03:22:36.976Z,8.27
2023-04-30T03:25:06.897Z,11.67
2023-04-30T03:27:36.520Z,13.10
2023-04-30T03:30:06.027Z,11.60
2023-04-30T03:32:34.509Z,8.77
2023-04-30T03:35:04.204Z,8.47
2023-04-30T03:37:32.748Z,9.63
2023-04-30T03:40:01.309Z,8.53
2023-04-30T03:42:29.571Z,10.77
2023-04-30T03:44:59.492Z,9.47
2023-04-30T03:47:27.844Z,11.80
2023-04-30T03:49:56.490Z,11.37
2023-04-30T03:52:26.578Z,9.97
2023-04-30T03:54:55.685Z,9.20
2023-04-30T03:57:24.163Z,10.13
2023-04-30T03:59:53.267Z,7.70
2023-04-30T04:02:23.666Z,9.87
2023-04-30T04:04:53.605Z,11.77
2023-04-30T04:07:22.103Z,11.07
2023-04-30T04:09:50.770Z,10.57
2023-04-30T04:12:18.903Z,8.53
2023-04-30T04:14:47.763Z,10.87
2023-04-30T04:17:16.029Z,13.70
2023-04-30T04:19:47.384Z,13.90
2023-04-30T04:22:17.641Z,8.50
2023-04-30T04:24:47.917Z,12.20
2023-04-30T04:27:20.822Z,10.30
2023-04-30T04:29:49.856Z,10.43
2023-04-30T04:32:18.391Z,9.93
2023-04-30T04:34:49.407Z,10.63
2023-04-30T04:37:18.152Z,13.87
2023-04-30T04:39:46.713Z,8.87
2023-04-30T04:42:16.484Z,9.23
2023-04-30T04:44:45.657Z,11.20
2023-04-30T04:47:13.967Z,10.67
2023-04-30T04:49:42.851Z,9.50
2023-04-30T04:52:12.483Z,8.30
2023-04-30T04:54:41.064Z,13.53
2023-04-30T04:57:09.238Z,10.73
2023-04-30T04:59:38.680Z,8.53
2023-04-30T05:02:07.070Z,7.77
2023-04-30T05:04:35.975Z,7.60
2023-04-30T05:07:04.279Z,8.87
2023-04-30T05:09:34.042Z,7.73
2023-04-30T05:12:02.259Z,11.13
2023-04-30T05:14:31.081Z,8.77
2023-04-30T05:16:59.735Z,11.77
2023-04-30T05:19:28.328Z,7.53
2023-04-30T05:21:56.594Z,7.70
2023-04-30T05:24:25.403Z,10.33
2023-04-30T05:26:55.119Z,7.33
2023-04-30T05:29:24.128Z,7.47
2023-04-30T05:31:52.439Z,7.77
2023-04-30T05:34:21.265Z,6.20
2023-04-30T05:36:49.888Z,7.47
2023-04-30T05:39:18.459Z,9.07
2023-04-30T05:41:46.590Z,7.63
2023-04-30T05:44:16.629Z,6.90
2023-04-30T05:46:45.135Z,10.23
2023-04-30T05:49:13.664Z,8.77
2023-04-30T05:51:42.401Z,5.77
2023-04-30T05:54:11.254Z,9.13
2023-04-30T05:56:39.592Z,9.93
2023-04-30T05:59:08.208Z,9.03
2023-04-30T06:01:38.238Z,9.23
2023-04-30T06:04:06.767Z,9.13
2023-04-30T06:06:35.133Z,9.60
2023-04-30T06:09:03.743Z,7.93
2023-04-30T06:11:32.248Z,7.30
2023-04-30T06:14:01.220Z,6.63
2023-04-30T06:16:30.400Z,6.87
2023-04-30T06:19:01.020Z,10.23
2023-04-30T06:21:29.355Z,6.33
2023-04-30T06:23:58.029Z,6.53
2023-04-30T06:26:26.361Z,5.20
2023-04-30T06:28:54.801Z,6.30
2023-04-30T06:31:23.257Z,7.23
2023-04-30T06:33:52.543Z,6.23
2023-04-30T06:36:22.264Z,10.23
2023-04-30T06:38:51.032Z,5.97
2023-04-30T06:41:19.610Z,6.30
2023-04-30T06:43:48.175Z,8.43
2023-04-30T06:46:16.562Z,6.67
2023-04-30T06:48:45.409Z,4.83
2023-04-30T06:51:13.581Z,6.93
2023-04-30T06:53:43.511Z,10.10
2023-04-30T06:56:11.782Z,8.23
2023-04-30T06:58:40.294Z,4.97
2023-04-30T07:01:08.663Z,8.57
2023-04-30T07:03:37.440Z,10.27
2023-04-30T07:06:06.160Z,6.80
2023-04-30T07:08:34.756Z,6.20
2023-04-30T07:11:04.447Z,7.03
2023-04-30T07:13:32.952Z,10.67
2023-04-30T07:16:01.344Z,7.23
2023-04-30T07:18:30.569Z,3.33
2023-04-30T07:20:58.772Z,6.60
2023-04-30T07:23:28.498Z,10.23
2023-04-30T07:25:58.774Z,6.57
2023-04-30T07:28:29.529Z,5.57
2023-04-30T07:30:57.783Z,6.90
2023-04-30T07:33:26.283Z,2.97
2023-04-30T07:35:56.140Z,7.93
2023-04-30T07:38:24.829Z,4.83
2023-04-30T07:40:53.112Z,7.47
2023-04-30T07:43:21.658Z,8.53
2023-04-30T07:45:53.434Z,7.13
2023-04-30T07:48:22.320Z,3.40
2023-04-30T07:50:52.136Z,9.63
2023-04-30T07:53:21.488Z,5.67
2023-04-30T07:55:49.849Z,6.03
2023-04-30T07:58:18.534Z,8.13
2023-04-30T08:00:46.932Z,5.63
2023-04-30T08:03:17.030Z,6.93
2023-04-30T08:05:46.227Z,8.70
2023-04-30T08:08:14.783Z,7.77
2023-04-30T08:10:43.613Z,8.33
2023-04-30T08:13:12.111Z,5.90
2023-04-30T08:15:40.634Z,6.97
2023-04-30T08:18:10.716Z,11.60
2023-04-30T08:20:40.912Z,3.77
2023-04-30T08:23:09.694Z,4.40
2023-04-30T08:25:37.967Z,7.47
2023-04-30T08:28:07.845Z,7.97
2023-04-30T08:30:36.271Z,5.10
2023-04-30T08:33:04.879Z,7.03
2023-04-30T08:35:33.234Z,7.77
2023-04-30T08:38:03.309Z,6.80
2023-04-30T08:40:50.262Z,5.93
2023-04-30T08:43:20.188Z,4.37
2023-04-30T08:45:50.282Z,5.63
2023-04-30T08:48:22.318Z,4.50
2023-04-30T08:50:50.636Z,5.00
2023-04-30T08:53:21.726Z,6.80
2023-04-30T08:55:49.931Z,8.70
2023-04-30T08:58:18.635Z,5.80
2023-04-30T09:00:47.072Z,5.80
2023-04-30T09:03:16.110Z,5.13
2023-04-30T09:05:44.656Z,5.83
2023-04-30T09:08:20.298Z,4.57
2023-04-30T09:10:48.611Z,4.73
2023-04-30T09:13:17.304Z,7.53
2023-04-30T09:15:45.949Z,4.43
2023-04-30T09:18:17.688Z,4.80
2023-04-30T09:20:57.286Z,4.73
2023-04-30T09:23:27.198Z,4.97
2023-04-30T09:25:56.535Z,3.93
2023-04-30T09:28:27.333Z,6.27
2023-04-30T09:30:58.277Z,5.93
2023-04-30T09:33:27.355Z,5.80
2023-04-30T09:35:55.526Z,7.60
2023-04-30T09:38:30.432Z,3.90
2023-04-30T09:41:00.777Z,3.30
2023-04-30T09:43:30.789Z,7.33
2023-04-30T09:46:00.835Z,2.50
2023-04-30T09:48:29.873Z,7.07
2023-04-30T09:50:58.296Z,3.30
2023-04-30T09:53:29.227Z,4.57
2023-04-30T09:56:02.717Z,4.00
2023-04-30T09:58:33.591Z,5.83
2023-04-30T10:01:05.099Z,5.83
2023-04-30T10:03:34.235Z,2.93
2023-04-30T10:06:03.595Z,3.60
2023-04-30T10:08:40.923Z,7.33
2023-04-30T10:11:12.884Z,3.53
2023-04-30T10:13:46.599Z,2.50
2023-04-30T10:16:21.715Z,2.67
2023-04-30T10:18:53.084Z,5.43
2023-04-30T10:21:24.574Z,3.00
2023-04-30T10:23:56.067Z,4.63
2023-04-30T10:26:25.797Z,3.73
2023-04-30T10:28:55.270Z,4.73
2023-04-30T10:31:24.376Z,1.90
2023-04-30T10:34:03.496Z,7.10
2023-04-30T10:36:42.148Z,6.80
2023-04-30T10:39:13.470Z,4.03
2023-04-30T10:41:41.888Z,4.80
2023-04-30T10:44:10.886Z,3.83
2023-04-30T10:46:39.365Z,5.67
2023-04-30T10:49:08.366Z,5.77
2023-04-30T10:51:47.465Z,2.77
2023-04-30T10:54:23.625Z,2.90
2023-04-30T10:56:53.266Z,4.03
2023-04-30T10:59:21.918Z,3.17
2023-04-30T11:01:58.159Z,5.77
2023-04-30T11:04:27.232Z,3.57
2023-04-30T11:07:04.644Z,6.33
2023-04-30T11:09:40.748Z,2.83
2023-04-30T11:12:14.371Z,3.43
2023-04-30T11:14:45.317Z,4.80
2023-04-30T11:17:14.967Z,3.97
2023-04-30T11:19:50.191Z,4.97
2023-04-30T11:22:20.825Z,5.07
2023-04-30T11:24:55.486Z,6.47
2023-04-30T11:27:25.527Z,5.00
2023-04-30T11:29:55.423Z,5.23
2023-04-30T11:32:26.148Z,5.43
2023-04-30T11:34:55.515Z,5.40
2023-04-30T11:37:36.276Z,4.60
2023-04-30T11:40:08.710Z,7.67
2023-04-30T11:42:39.436Z,3.37
2023-04-30T11:45:10.485Z,8.53
2023-04-30T11:47:43.714Z,4.97
2023-04-30T11:50:14.324Z,3.83
2023-04-30T11:52:43.462Z,2.70
2023-04-30T11:55:17.598Z,3.80
2023-04-30T11:57:47.690Z,3.23
2023-04-30T12:00:17.812Z,7.45
2023-04-30T12:02:47.604Z,2.17
2023-04-30T12:05:18.055Z,2.83
2023-04-30T12:07:48.129Z,4.43
2023-04-30T12:10:20.089Z,4.20
2023-04-30T12:12:51.240Z,3.63
2023-04-30T12:15:23.283Z,4.85
2023-04-30T12:17:51.536Z,5.40
2023-04-30T12:20:21.846Z,4.72
2023-04-30T12:22:50.928Z,4.38
2023-04-30T12:25:22.431Z,3.70
2023-04-30T12:27:52.806Z,4.93
2023-04-30T12:30:22.733Z,6.05
2023-04-30T12:32:52.568Z,4.93
2023-04-30T12:35:23.785Z,6.65
2023-04-30T12:37:53.740Z,3.13
2023-04-30T12:40:28.583Z,3.45
2023-04-30T12:43:02.504Z,4.25
2023-04-30T12:45:52.308Z,2.45
2023-04-30T12:48:23.168Z,3.92
2023-04-30T12:50:56.335Z,5.07
2023-04-30T12:53:25.026Z,3.80
2023-04-30T12:56:12.095Z,3.38
2023-04-30T12:58:41.760Z,3.35
2023-04-30T13:01:12.867Z,5.68
2023-04-30T13:03:41.746Z,4.15
2023-04-30T13:06:11.010Z,4.38
2023-04-30T13:08:49.833Z,6.55
2023-04-30T13:11:28.400Z,4.90
2023-04-30T13:13:56.734Z,5.47
2023-04-30T13:16:26.106Z,4.55
2023-04-30T13:18:55.209Z,5.38
2023-04-30T13:21:24.881Z,4.00
2023-04-30T13:23:54.839Z,5.60
2023-04-30T13:26:24.550Z,8.00
2023-04-30T13:28:54.388Z,4.75
2023-04-30T13:31:23.532Z,3.95
2023-04-30T13:33:52.082Z,2.72
2023-04-30T13:36:21.024Z,4.90
2023-04-30T13:38:49.120Z,2.92
2023-04-30T13:41:17.591Z,4.40
2023-04-30T13:43:47.572Z,2.80
2023-04-30T13:46:17.717Z,4.03
2023-04-30T13:48:48.196Z,4.65
2023-04-30T13:51:16.842Z,2.67
2023-04-30T13:53:45.136Z,3.40
2023-04-30T13:56:15.337Z,3.40
2023-04-30T13:58:44.102Z,7.70
2023-04-30T14:01:13.890Z,4.32
2023-04-30T14:03:43.633Z,5.03
2023-04-30T14:06:12.541Z,4.40
2023-04-30T14:08:40.894Z,4.28
2023-04-30T14:11:09.605Z,4.07
2023-04-30T14:13:38.109Z,5.38
2023-04-30T14:16:07.206Z,2.28
2023-04-30T14:18:35.752Z,3.53
2023-04-30T14:21:05.981Z,3.70
2023-04-30T14:23:34.247Z,4.57
2023-04-30T14:26:02.904Z,3.25
2023-04-30T14:28:31.420Z,4.60
2023-04-30T14:31:00.411Z,3.53
2023-04-30T14:33:28.657Z,4.22
2023-04-30T14:35:57.615Z,2.75
2023-04-30T14:38:27.304Z,3.85
2023-04-30T14:40:55.871Z,2.90
2023-04-30T14:43:24.510Z,3.45
2023-04-30T14:45:53.392Z,5.32
2023-04-30T14:48:21.664Z,3.72
2023-04-30T14:50:51.642Z,2.33
2023-04-30T14:53:19.921Z,3.20
2023-04-30T14:55:49.978Z,7.53
2023-04-30T14:58:19.606Z,5.47
2023-04-30T15:00:48.294Z,2.90
2023-04-30T15:03:16.794Z,3.58
2023-04-30T15:05:45.580Z,4.95
2023-04-30T15:08:13.895Z,2.95
2023-04-30T15:10:42.479Z,4.38
2023-04-30T15:13:13.593Z,7.75
2023-04-30T15:15:43.108Z,4.90
2023-04-30T15:18:11.520Z,4.07
2023-04-30T15:20:39.972Z,2.92
2023-04-30T15:23:08.377Z,4.15
2023-04-30T15:25:36.856Z,3.95
2023-04-30T15:28:05.220Z,2.90
2023-04-30T15:30:35.033Z,3.45
2023-04-30T15:33:03.654Z,5.22
2023-04-30T15:35:32.710Z,4.28
2023-04-30T15:38:00.897Z,4.68
2023-04-30T15:40:29.637Z,3.15
2023-04-30T15:42:57.992Z,3.00
2023-04-30T15:45:27.529Z,3.58
2023-04-30T15:47:57.300Z,3.53
2023-04-30T15:50:26.110Z,6.25
2023-04-30T15:52:54.422Z,2.38
2023-04-30T15:55:23.680Z,2.30
2023-04-30T15:57:52.173Z,5.32
2023-04-30T16:00:23.377Z,4.63
2023-04-30T16:02:51.602Z,2.92
2023-04-30T16:05:21.556Z,4.95
2023-04-30T16:07:49.920Z,3.15
2023-04-30T16:10:19.985Z,3.42
2023-04-30T16:12:48.635Z,6.47
2023-04-30T16:15:17.576Z,4.68
2023-04-30T16:17:45.908Z,3.63
2023-04-30T16:20:15.168Z,5.72
2023-04-30T16:22:44.976Z,3.85
2023-04-30T16:25:13.622Z,2.92
2023-04-30T16:27:43.234Z,2.38
2023-04-30T16:30:12.366Z,3.28
2023-04-30T16:32:40.749Z,4.35
2023-04-30T16:35:10.097Z,3.72
2023-04-30T16:37:38.318Z,3.83
2023-04-30T16:40:09.514Z,3.67
2023-04-30T16:42:37.759Z,3.60
2023-04-30T16:45:07.154Z,5.10
2023-04-30T16:47:35.303Z,4.28
2023-04-30T16:50:04.285Z,5.25
2023-04-30T16:52:33.568Z,3.33
2023-04-30T16:55:02.308Z,3.35
2023-04-30T16:57:31.952Z,4.68
2023-04-30T17:00:00.534Z,3.35
2023-04-30T17:02:29.036Z,4.78
2023-04-30T17:04:58.935Z,5.03
2023-04-30T17:07:27.139Z,3.40
2023-04-30T17:09:56.294Z,5.28
2023-04-30T17:12:24.931Z,4.20
2023-04-30T17:14:54.766Z,4.32
2023-04-30T17:17:23.420Z,3.72
2023-04-30T17:19:51.956Z,4.55
2023-04-30T17:22:20.415Z,3.22
2023-04-30T17:24:49.051Z,3.50
2023-04-30T17:27:19.020Z,4.38
2023-04-30T17:29:47.518Z,4.10
2023-04-30T17:32:17.846Z,3.67
2023-04-30T17:34:47.382Z,4.60
2023-04-30T17:37:15.949Z,9.95
2023-04-30T17:39:44.564Z,4.85
2023-04-30T17:42:13.164Z,3.55
2023-04-30T17:44:42.170Z,3.53
2023-04-30T17:47:10.412Z,4.18
2023-04-30T17:49:40.504Z,3.58
2023-04-30T17:52:08.841Z,2.83
2023-04-30T17:54:37.649Z,3.38
2023-04-30T17:57:06.549Z,4.55
2023-04-30T17:59:35.123Z,2.92
2023-04-30T18:02:05.518Z,6.45
2023-04-30T18:04:34.650Z,5.65
2023-04-30T18:07:04.260Z,4.30
2023-04-30T18:09:32.880Z,4.90
2023-04-30T18:12:01.244Z,6.15
2023-04-30T18:14:29.865Z,7.03
2023-04-30T18:16:58.315Z,7.43
2023-04-30T18:19:26.779Z,5.60
2023-04-30T18:21:56.695Z,6.82
2023-04-30T18:24:28.370Z,11.05
2023-04-30T18:26:56.753Z,13.13
2023-04-30T18:29:25.397Z,8.55
2023-04-30T18:31:53.591Z,10.43
2023-04-30T18:34:22.444Z,10.57
2023-04-30T18:36:50.790Z,8.98
2023-04-30T18:39:20.066Z,8.65
2023-04-30T18:41:49.817Z,8.88
2023-04-30T18:44:18.322Z,7.25
2023-04-30T18:46:46.679Z,7.68
2023-04-30T18:49:15.771Z,7.20
2023-04-30T18:51:44.193Z,6.00
2023-04-30T18:54:14.025Z,7.72
2023-04-30T18:56:42.244Z,8.32
2023-04-30T18:59:12.443Z,5.45
2023-04-30T19:01:40.820Z,5.72
2023-04-30T19:04:13.642Z,7.07
2023-04-30T19:06:42.024Z,7.50
2023-04-30T19:09:10.656Z,12.65
2023-04-30T19:11:39.029Z,13.80
2023-04-30T19:14:07.698Z,6.93
2023-04-30T19:16:37.229Z,6.15
2023-04-30T19:19:05.840Z,6.75
2023-04-30T19:21:36.185Z,6.20
2023-04-30T19:24:05.480Z,7.13
2023-04-30T19:26:34.235Z,5.68
2023-04-30T19:29:04.011Z,6.38
2023-04-30T19:31:33.391Z,8.35
2023-04-30T19:34:03.772Z,5.47
2023-04-30T19:36:32.124Z,6.13
2023-04-30T19:39:00.733Z,6.25
2023-04-30T19:41:29.005Z,4.70
2023-04-30T19:43:57.630Z,8.60
2023-04-30T19:46:26.891Z,9.23
2023-04-30T19:48:55.681Z,7.20
2023-04-30T19:51:25.159Z,8.27
2023-04-30T19:53:54.921Z,6.20
2023-04-30T19:56:23.384Z,6.27
2023-04-30T19:58:51.907Z,7.67
2023-04-30T20:01:20.337Z,6.17
2023-04-30T20:03:48.899Z,6.43
2023-04-30T20:06:17.224Z,8.87
2023-04-30T20:08:47.198Z,6.10
2023-04-30T20:11:15.528Z,7.90
2023-04-30T20:13:44.074Z,8.87
2023-04-30T20:16:12.738Z,8.30
2023-04-30T20:18:42.047Z,7.00
2023-04-30T20:21:10.496Z,10.13
2023-04-30T20:23:40.731Z,5.53
2023-04-30T20:26:10.666Z,6.63
2023-04-30T20:28:39.661Z,4.93
2023-04-30T20:31:09.708Z,10.13
2023-04-30T20:33:39.264Z,8.93
2023-04-30T20:36:07.478Z,9.67
2023-04-30T20:38:36.159Z,8.70
2023-04-30T20:41:04.472Z,10.63
2023-04-30T20:43:34.501Z,7.73
2023-04-30T20:46:03.033Z,8.27
2023-04-30T20:48:31.582Z,9.67
2023-04-30T20:50:59.949Z,9.17
2023-04-30T20:53:28.519Z,9.80
2023-04-30T20:56:00.305Z,13.47
2023-04-30T20:58:29.682Z,11.67
2023-04-30T21:00:59.492Z,9.37
2023-04-30T21:03:28.232Z,9.30
2023-04-30T21:05:56.489Z,11.93
2023-04-30T21:08:25.404Z,8.43
2023-04-30T21:10:53.587Z,10.97
2023-04-30T21:13:22.146Z,9.23
2023-04-30T21:15:53.538Z,8.43
2023-04-30T21:18:26.504Z,10.67
2023-04-30T21:20:56.412Z,9.10
2023-04-30T21:23:24.942Z,6.37
2023-04-30T21:25:55.565Z,7.63
2023-04-30T21:28:24.092Z,9.10
2023-04-30T21:30:52.324Z,8.90
2023-04-30T21:33:22.773Z,7.77
2023-04-30T21:35:51.049Z,8.23
2023-04-30T21:38:19.522Z,9.70
2023-04-30T21:40:47.906Z,8.53
2023-04-30T21:43:17.813Z,9.10
2023-04-30T21:45:46.086Z,6.57
2023-04-30T21:48:14.625Z,7.50
2023-04-30T21:50:44.402Z,7.33
2023-04-30T21:53:13.220Z,8.43
2023-04-30T21:55:41.717Z,10.93
2023-04-30T21:58:10.119Z,7.83
2023-04-30T22:00:39.157Z,9.10
2023-04-30T22:03:09.989Z,7.60
2023-04-30T22:05:39.818Z,9.20
2023-04-30T22:08:09.757Z,8.90
2023-04-30T22:10:38.147Z,8.73
2023-04-30T22:13:07.048Z,8.27
2023-04-30T22:15:47.137Z,9.73
2023-04-30T22:18:17.174Z,11.17
2023-04-30T22:20:45.686Z,8.37
2023-04-30T22:23:15.724Z,10.93
2023-04-30T22:25:44.193Z,11.50
2023-04-30T22:28:12.744Z,7.23
2023-04-30T22:30:41.260Z,9.50
2023-04-30T22:33:09.830Z,9.53
2023-04-30T22:35:39.146Z,9.17
2023-04-30T22:38:07.970Z,8.87
2023-04-30T22:40:40.159Z,11.40
2023-04-30T22:43:10.019Z,8.33
2023-04-30T22:45:40.447Z,10.30
2023-04-30T22:48:10.611Z,8.57
2023-04-30T22:50:39.376Z,10.83
2023-04-30T22:53:08.034Z,11.47
2023-04-30T22:55:37.712Z,8.97
2023-04-30T22:58:06.534Z,10.87
2023-04-30T23:00:34.901Z,12.90
2023-04-30T23:03:03.460Z,11.30
2023-04-30T23:05:31.800Z,11.37
2023-04-30T23:08:01.156Z,12.13
2023-04-30T23:10:29.860Z,10.27
2023-04-30T23:12:59.673Z,12.07
2023-04-30T23:15:28.136Z,11.43
2023-04-30T23:17:58.211Z,8.50
2023-04-30T23:20:26.639Z,8.33
2023-04-30T23:22:56.163Z,11.37
2023-04-30T23:25:24.485Z,10.67
2023-04-30T23:27:53.876Z,10.10
2023-04-30T23:30:23.476Z,8.87
2023-04-30T23:32:52.231Z,6.03
2023-04-30T23:35:21.064Z,8.27
2023-04-30T23:37:50.178Z,5.80
2023-04-30T23:40:19.726Z,7.53
2023-04-30T23:42:48.181Z,6.60
2023-04-30T23:45:16.607Z,8.97
2023-04-30T23:47:46.724Z,6.57
2023-04-30T23:50:14.957Z,8.33
2023-04-30T23:52:44.116Z,10.10
2023-04-30T23:55:12.695Z,7.63
2023-04-30T23:57:42.255Z,8.03
